sensor_id;sensor_type;location;lat;lon;timestamp;temperature;humidity
42097;DHT22;27754;45.414;11.084;2023-03-14T00:01:30;12.00;76.70
42097;DHT22;27754;45.414;11.084;2023-03-14T00:03:57;12.00;76.80
42097;DHT22;27754;45.414;11.084;2023-03-14T00:06:24;12.00;77.00
42097;DHT22;27754;45.414;11.084;2023-03-14T00:08:51;12.00;77.10
42097;DHT22;27754;45.414;11.084;2023-03-14T00:11:20;12.10;76.90
42097;DHT22;27754;45.414;11.084;2023-03-14T00:13:48;12.10;76.60
42097;DHT22;27754;45.414;11.084;2023-03-14T00:16:15;12.10;76.60
42097;DHT22;27754;45.414;11.084;2023-03-14T00:18:42;12.10;76.40
42097;DHT22;27754;45.414;11.084;2023-03-14T00:21:10;12.10;76.20
42097;DHT22;27754;45.414;11.084;2023-03-14T00:23:39;12.10;76.50
42097;DHT22;27754;45.414;11.084;2023-03-14T00:26:18;12.20;76.40
42097;DHT22;27754;45.414;11.084;2023-03-14T00:28:45;12.10;76.20
42097;DHT22;27754;45.414;11.084;2023-03-14T00:31:14;12.20;75.90
42097;DHT22;27754;45.414;11.084;2023-03-14T00:33:43;12.30;75.70
42097;DHT22;27754;45.414;11.084;2023-03-14T00:36:12;12.30;75.70
42097;DHT22;27754;45.414;11.084;2023-03-14T00:38:40;12.40;75.40
42097;DHT22;27754;45.414;11.084;2023-03-14T00:41:10;12.30;75.30
42097;DHT22;27754;45.414;11.084;2023-03-14T00:43:37;12.30;75.20
42097;DHT22;27754;45.414;11.084;2023-03-14T00:46:04;12.40;75.10
42097;DHT22;27754;45.414;11.084;2023-03-14T00:48:32;12.40;75.10
42097;DHT22;27754;45.414;11.084;2023-03-14T00:51:00;12.40;75.20
42097;DHT22;27754;45.414;11.084;2023-03-14T00:53:27;12.40;74.70
42097;DHT22;27754;45.414;11.084;2023-03-14T00:55:54;12.30;74.60
42097;DHT22;27754;45.414;11.084;2023-03-14T00:58:21;12.30;74.50
42097;DHT22;27754;45.414;11.084;2023-03-14T01:00:48;12.30;74.50
42097;DHT22;27754;45.414;11.084;2023-03-14T01:03:16;12.20;74.70
42097;DHT22;27754;45.414;11.084;2023-03-14T01:05:43;12.30;74.50
42097;DHT22;27754;45.414;11.084;2023-03-14T01:08:10;12.30;74.30
42097;DHT22;27754;45.414;11.084;2023-03-14T01:10:39;12.30;74.10
42097;DHT22;27754;45.414;11.084;2023-03-14T01:13:08;12.30;74.00
42097;DHT22;27754;45.414;11.084;2023-03-14T01:15:36;12.30;74.00
42097;DHT22;27754;45.414;11.084;2023-03-14T01:18:03;12.40;74.00
42097;DHT22;27754;45.414;11.084;2023-03-14T01:20:32;12.40;74.10
42097;DHT22;27754;45.414;11.084;2023-03-14T01:22:59;12.40;73.90
42097;DHT22;27754;45.414;11.084;2023-03-14T01:25:26;12.40;73.90
42097;DHT22;27754;45.414;11.084;2023-03-14T01:27:53;12.40;73.90
42097;DHT22;27754;45.414;11.084;2023-03-14T01:30:21;12.30;73.70
42097;DHT22;27754;45.414;11.084;2023-03-14T01:32:48;12.40;73.60
42097;DHT22;27754;45.414;11.084;2023-03-14T01:35:15;12.40;73.50
42097;DHT22;27754;45.414;11.084;2023-03-14T01:37:42;12.40;73.20
42097;DHT22;27754;45.414;11.084;2023-03-14T01:40:14;12.40;72.80
42097;DHT22;27754;45.414;11.084;2023-03-14T01:43:12;12.50;72.60
42097;DHT22;27754;45.414;11.084;2023-03-14T01:52:13;12.50;72.60
42097;DHT22;27754;45.414;11.084;2023-03-14T01:54:49;12.60;72.60
42097;DHT22;27754;45.414;11.084;2023-03-14T01:57:31;12.50;72.70
42097;DHT22;27754;45.414;11.084;2023-03-14T02:00:11;12.60;72.70
42097;DHT22;27754;45.414;11.084;2023-03-14T02:02:41;12.60;72.70
42097;DHT22;27754;45.414;11.084;2023-03-14T02:05:10;12.60;72.50
42097;DHT22;27754;45.414;11.084;2023-03-14T02:07:54;12.60;72.40
42097;DHT22;27754;45.414;11.084;2023-03-14T02:10:29;12.60;72.10
42097;DHT22;27754;45.414;11.084;2023-03-14T02:13:02;12.60;71.90
42097;DHT22;27754;45.414;11.084;2023-03-14T02:15:49;12.70;71.70
42097;DHT22;27754;45.414;11.084;2023-03-14T02:18:33;12.70;71.20
42097;DHT22;27754;45.414;11.084;2023-03-14T02:27:30;12.60;71.00
42097;DHT22;27754;45.414;11.084;2023-03-14T02:30:08;12.60;70.90
42097;DHT22;27754;45.414;11.084;2023-03-14T02:32:41;12.60;70.90
42097;DHT22;27754;45.414;11.084;2023-03-14T02:35:17;12.60;70.70
42097;DHT22;27754;45.414;11.084;2023-03-14T02:37:52;12.60;70.50
42097;DHT22;27754;45.414;11.084;2023-03-14T02:40:21;12.60;70.40
42097;DHT22;27754;45.414;11.084;2023-03-14T02:42:50;12.50;70.50
42097;DHT22;27754;45.414;11.084;2023-03-14T02:47:57;12.60;70.40
42097;DHT22;27754;45.414;11.084;2023-03-14T02:50:30;12.60;70.40
42097;DHT22;27754;45.414;11.084;2023-03-14T02:53:00;12.60;70.40
42097;DHT22;27754;45.414;11.084;2023-03-14T02:55:27;12.60;70.40
42097;DHT22;27754;45.414;11.084;2023-03-14T02:57:59;12.60;70.40
42097;DHT22;27754;45.414;11.084;2023-03-14T03:00:26;12.60;70.20
42097;DHT22;27754;45.414;11.084;2023-03-14T03:02:53;12.60;69.90
42097;DHT22;27754;45.414;11.084;2023-03-14T03:05:20;12.70;69.70
42097;DHT22;27754;45.414;11.084;2023-03-14T03:07:47;12.70;69.60
42097;DHT22;27754;45.414;11.084;2023-03-14T03:10:14;12.70;69.50
42097;DHT22;27754;45.414;11.084;2023-03-14T03:12:41;12.60;69.60
42097;DHT22;27754;45.414;11.084;2023-03-14T03:15:10;12.60;69.60
42097;DHT22;27754;45.414;11.084;2023-03-14T03:17:37;12.60;69.70
42097;DHT22;27754;45.414;11.084;2023-03-14T03:20:05;12.60;69.80
42097;DHT22;27754;45.414;11.084;2023-03-14T03:22:36;12.60;70.20
42097;DHT22;27754;45.414;11.084;2023-03-14T03:25:05;12.60;70.00
42097;DHT22;27754;45.414;11.084;2023-03-14T03:27:34;12.70;69.80
42097;DHT22;27754;45.414;11.084;2023-03-14T03:30:04;12.60;69.90
42097;DHT22;27754;45.414;11.084;2023-03-14T03:32:33;12.60;69.80
42097;DHT22;27754;45.414;11.084;2023-03-14T03:35:01;12.60;70.10
42097;DHT22;27754;45.414;11.084;2023-03-14T03:37:33;12.60;70.20
42097;DHT22;27754;45.414;11.084;2023-03-14T03:40:02;12.60;70.30
42097;DHT22;27754;45.414;11.084;2023-03-14T03:42:34;12.50;70.30
42097;DHT22;27754;45.414;11.084;2023-03-14T03:45:02;12.60;70.40
42097;DHT22;27754;45.414;11.084;2023-03-14T03:47:31;12.60;70.60
42097;DHT22;27754;45.414;11.084;2023-03-14T03:49:58;12.60;71.20
42097;DHT22;27754;45.414;11.084;2023-03-14T03:52:25;12.70;71.20
42097;DHT22;27754;45.414;11.084;2023-03-14T03:54:52;12.60;71.10
42097;DHT22;27754;45.414;11.084;2023-03-14T03:57:20;12.60;71.10
42097;DHT22;27754;45.414;11.084;2023-03-14T03:59:47;12.60;71.60
42097;DHT22;27754;45.414;11.084;2023-03-14T04:02:14;12.60;72.10
42097;DHT22;27754;45.414;11.084;2023-03-14T04:04:42;12.60;71.70
42097;DHT22;27754;45.414;11.084;2023-03-14T04:07:09;12.50;72.00
42097;DHT22;27754;45.414;11.084;2023-03-14T04:09:37;12.40;72.40
42097;DHT22;27754;45.414;11.084;2023-03-14T04:12:21;12.40;72.60
42097;DHT22;27754;45.414;11.084;2023-03-14T04:15:03;12.40;73.10
42097;DHT22;27754;45.414;11.084;2023-03-14T04:17:31;12.40;73.20
42097;DHT22;27754;45.414;11.084;2023-03-14T04:19:58;12.40;73.30
42097;DHT22;27754;45.414;11.084;2023-03-14T04:22:33;12.40;73.50
42097;DHT22;27754;45.414;11.084;2023-03-14T04:25:00;12.40;73.60
42097;DHT22;27754;45.414;11.084;2023-03-14T04:27:31;12.40;73.70
42097;DHT22;27754;45.414;11.084;2023-03-14T04:30:00;12.30;73.70
42097;DHT22;27754;45.414;11.084;2023-03-14T04:32:46;12.30;73.70
42097;DHT22;27754;45.414;11.084;2023-03-14T04:35:13;12.20;73.80
42097;DHT22;27754;45.414;11.084;2023-03-14T04:37:41;12.20;73.90
42097;DHT22;27754;45.414;11.084;2023-03-14T04:40:12;12.20;74.10
42097;DHT22;27754;45.414;11.084;2023-03-14T04:42:39;12.20;74.10
42097;DHT22;27754;45.414;11.084;2023-03-14T04:45:06;12.20;74.20
42097;DHT22;27754;45.414;11.084;2023-03-14T04:47:34;12.20;74.30
42097;DHT22;27754;45.414;11.084;2023-03-14T04:50:02;12.20;74.30
42097;DHT22;27754;45.414;11.084;2023-03-14T04:52:30;12.30;74.30
42097;DHT22;27754;45.414;11.084;2023-03-14T04:54:57;12.30;74.10
42097;DHT22;27754;45.414;11.084;2023-03-14T04:57:25;12.40;73.80
42097;DHT22;27754;45.414;11.084;2023-03-14T04:59:53;12.30;74.00
42097;DHT22;27754;45.414;11.084;2023-03-14T05:02:39;12.30;74.00
42097;DHT22;27754;45.414;11.084;2023-03-14T05:05:15;12.40;74.20
42097;DHT22;27754;45.414;11.084;2023-03-14T05:08:00;12.40;73.90
42097;DHT22;27754;45.414;11.084;2023-03-14T05:10:44;12.40;74.00
42097;DHT22;27754;45.414;11.084;2023-03-14T05:13:38;12.30;74.00
42097;DHT22;27754;45.414;11.084;2023-03-14T05:16:35;12.30;74.20
42097;DHT22;27754;45.414;11.084;2023-03-14T05:19:20;12.40;74.50
42097;DHT22;27754;45.414;11.084;2023-03-14T05:22:11;12.30;74.90
42097;DHT22;27754;45.414;11.084;2023-03-14T05:24:52;12.30;75.80
42097;DHT22;27754;45.414;11.084;2023-03-14T05:27:47;12.40;75.50
42097;DHT22;27754;45.414;11.084;2023-03-14T05:30:30;12.50;75.30
42097;DHT22;27754;45.414;11.084;2023-03-14T05:33:31;12.50;75.30
42097;DHT22;27754;45.414;11.084;2023-03-14T05:36:13;12.50;75.50
42097;DHT22;27754;45.414;11.084;2023-03-14T05:39:06;12.50;75.00
42097;DHT22;27754;45.414;11.084;2023-03-14T05:41:38;12.50;74.50
42097;DHT22;27754;45.414;11.084;2023-03-14T05:44:23;12.50;74.30
42097;DHT22;27754;45.414;11.084;2023-03-14T05:47:09;12.40;74.20
42097;DHT22;27754;45.414;11.084;2023-03-14T05:49:54;12.40;74.70
42097;DHT22;27754;45.414;11.084;2023-03-14T05:52:54;12.40;74.60
42097;DHT22;27754;45.414;11.084;2023-03-14T05:55:41;12.40;74.90
42097;DHT22;27754;45.414;11.084;2023-03-14T05:58:08;12.40;75.20
42097;DHT22;27754;45.414;11.084;2023-03-14T06:00:55;12.40;75.70
42097;DHT22;27754;45.414;11.084;2023-03-14T06:03:36;12.40;76.60
42097;DHT22;27754;45.414;11.084;2023-03-14T06:06:05;12.40;77.30
42097;DHT22;27754;45.414;11.084;2023-03-14T06:08:32;12.30;78.10
42097;DHT22;27754;45.414;11.084;2023-03-14T06:10:59;12.30;78.60
42097;DHT22;27754;45.414;11.084;2023-03-14T06:13:29;12.20;79.50
42097;DHT22;27754;45.414;11.084;2023-03-14T06:15:56;12.10;80.30
42097;DHT22;27754;45.414;11.084;2023-03-14T06:18:23;11.90;80.40
42097;DHT22;27754;45.414;11.084;2023-03-14T06:20:54;11.80;81.00
42097;DHT22;27754;45.414;11.084;2023-03-14T06:23:25;11.80;81.40
42097;DHT22;27754;45.414;11.084;2023-03-14T06:25:53;11.80;81.50
42097;DHT22;27754;45.414;11.084;2023-03-14T06:28:22;11.80;82.40
42097;DHT22;27754;45.414;11.084;2023-03-14T06:30:52;11.70;83.80
42097;DHT22;27754;45.414;11.084;2023-03-14T06:33:19;11.60;84.40
42097;DHT22;27754;45.414;11.084;2023-03-14T06:35:46;11.50;85.50
42097;DHT22;27754;45.414;11.084;2023-03-14T06:38:13;11.40;85.30
42097;DHT22;27754;45.414;11.084;2023-03-14T06:40:40;11.40;85.60
42097;DHT22;27754;45.414;11.084;2023-03-14T06:43:12;11.40;86.20
42097;DHT22;27754;45.414;11.084;2023-03-14T06:45:42;11.30;86.20
42097;DHT22;27754;45.414;11.084;2023-03-14T06:48:09;11.20;86.20
42097;DHT22;27754;45.414;11.084;2023-03-14T06:50:45;11.20;86.00
42097;DHT22;27754;45.414;11.084;2023-03-14T06:53:14;11.30;86.60
42097;DHT22;27754;45.414;11.084;2023-03-14T06:55:42;11.20;86.00
42097;DHT22;27754;45.414;11.084;2023-03-14T06:58:10;11.20;86.40
42097;DHT22;27754;45.414;11.084;2023-03-14T07:00:43;11.20;86.40
42097;DHT22;27754;45.414;11.084;2023-03-14T07:03:14;11.20;86.60
42097;DHT22;27754;45.414;11.084;2023-03-14T07:05:44;11.20;86.80
42097;DHT22;27754;45.414;11.084;2023-03-14T07:08:11;11.10;87.00
42097;DHT22;27754;45.414;11.084;2023-03-14T07:10:38;11.20;87.40
42097;DHT22;27754;45.414;11.084;2023-03-14T07:13:06;11.30;87.50
42097;DHT22;27754;45.414;11.084;2023-03-14T07:15:38;11.30;87.20
42097;DHT22;27754;45.414;11.084;2023-03-14T07:18:08;11.40;86.80
42097;DHT22;27754;45.414;11.084;2023-03-14T07:20:35;11.40;87.30
42097;DHT22;27754;45.414;11.084;2023-03-14T07:23:03;11.40;87.40
42097;DHT22;27754;45.414;11.084;2023-03-14T07:25:40;11.50;85.80
42097;DHT22;27754;45.414;11.084;2023-03-14T07:28:08;11.40;86.40
42097;DHT22;27754;45.414;11.084;2023-03-14T07:30:37;11.50;86.80
42097;DHT22;27754;45.414;11.084;2023-03-14T07:33:12;11.40;86.50
42097;DHT22;27754;45.414;11.084;2023-03-14T07:35:39;11.50;87.10
42097;DHT22;27754;45.414;11.084;2023-03-14T07:38:07;11.50;87.20
42097;DHT22;27754;45.414;11.084;2023-03-14T07:40:39;11.50;87.00
42097;DHT22;27754;45.414;11.084;2023-03-14T07:43:06;11.50;85.90
42097;DHT22;27754;45.414;11.084;2023-03-14T07:45:44;11.60;85.70
42097;DHT22;27754;45.414;11.084;2023-03-14T07:48:11;11.70;85.00
42097;DHT22;27754;45.414;11.084;2023-03-14T07:50:38;11.70;85.40
42097;DHT22;27754;45.414;11.084;2023-03-14T07:53:05;11.70;85.30
42097;DHT22;27754;45.414;11.084;2023-03-14T07:55:32;11.70;85.50
42097;DHT22;27754;45.414;11.084;2023-03-14T07:57:59;11.80;85.40
42097;DHT22;27754;45.414;11.084;2023-03-14T08:00:26;11.80;85.80
42097;DHT22;27754;45.414;11.084;2023-03-14T08:02:53;11.80;85.60
42097;DHT22;27754;45.414;11.084;2023-03-14T08:05:20;11.90;85.70
42097;DHT22;27754;45.414;11.084;2023-03-14T08:07:47;11.80;86.10
42097;DHT22;27754;45.414;11.084;2023-03-14T08:10:14;11.80;86.70
42097;DHT22;27754;45.414;11.084;2023-03-14T08:12:55;11.80;86.70
42097;DHT22;27754;45.414;11.084;2023-03-14T08:15:23;11.60;86.70
42097;DHT22;27754;45.414;11.084;2023-03-14T08:17:50;11.70;87.00
42097;DHT22;27754;45.414;11.084;2023-03-14T08:20:21;11.60;87.50
42097;DHT22;27754;45.414;11.084;2023-03-14T08:22:49;11.60;87.60
42097;DHT22;27754;45.414;11.084;2023-03-14T08:25:16;11.60;87.40
42097;DHT22;27754;45.414;11.084;2023-03-14T08:27:44;11.60;87.30
42097;DHT22;27754;45.414;11.084;2023-03-14T08:30:13;11.60;87.90
42097;DHT22;27754;45.414;11.084;2023-03-14T08:32:40;11.60;87.70
42097;DHT22;27754;45.414;11.084;2023-03-14T08:35:07;11.60;88.00
42097;DHT22;27754;45.414;11.084;2023-03-14T08:37:35;11.60;88.30
42097;DHT22;27754;45.414;11.084;2023-03-14T08:40:04;11.60;88.40
42097;DHT22;27754;45.414;11.084;2023-03-14T08:42:33;11.60;88.40
42097;DHT22;27754;45.414;11.084;2023-03-14T08:45:00;11.50;89.20
42097;DHT22;27754;45.414;11.084;2023-03-14T08:47:27;11.60;89.00
42097;DHT22;27754;45.414;11.084;2023-03-14T08:49:54;11.50;89.00
42097;DHT22;27754;45.414;11.084;2023-03-14T08:52:21;11.60;89.10
42097;DHT22;27754;45.414;11.084;2023-03-14T08:54:49;11.50;89.50
42097;DHT22;27754;45.414;11.084;2023-03-14T08:57:16;11.60;89.50
42097;DHT22;27754;45.414;11.084;2023-03-14T08:59:43;11.70;89.70
42097;DHT22;27754;45.414;11.084;2023-03-14T09:02:13;11.70;89.80
42097;DHT22;27754;45.414;11.084;2023-03-14T09:04:40;11.70;89.40
42097;DHT22;27754;45.414;11.084;2023-03-14T09:07:07;11.70;89.70
42097;DHT22;27754;45.414;11.084;2023-03-14T09:09:34;11.80;90.20
42097;DHT22;27754;45.414;11.084;2023-03-14T09:12:01;11.80;90.70
42097;DHT22;27754;45.414;11.084;2023-03-14T09:14:27;11.90;90.60
42097;DHT22;27754;45.414;11.084;2023-03-14T09:16:55;11.80;90.60
42097;DHT22;27754;45.414;11.084;2023-03-14T09:19:22;11.80;90.20
42097;DHT22;27754;45.414;11.084;2023-03-14T09:21:49;11.70;89.90
42097;DHT22;27754;45.414;11.084;2023-03-14T09:24:17;11.70;90.60
42097;DHT22;27754;45.414;11.084;2023-03-14T09:26:44;11.80;90.70
42097;DHT22;27754;45.414;11.084;2023-03-14T09:29:11;11.80;90.90
42097;DHT22;27754;45.414;11.084;2023-03-14T09:31:38;11.60;90.30
42097;DHT22;27754;45.414;11.084;2023-03-14T09:34:05;11.70;91.10
42097;DHT22;27754;45.414;11.084;2023-03-14T09:36:32;11.70;90.20
42097;DHT22;27754;45.414;11.084;2023-03-14T09:38:58;11.60;89.70
42097;DHT22;27754;45.414;11.084;2023-03-14T09:41:32;11.60;89.90
42097;DHT22;27754;45.414;11.084;2023-03-14T09:44:11;11.70;90.30
42097;DHT22;27754;45.414;11.084;2023-03-14T09:46:41;11.70;90.80
42097;DHT22;27754;45.414;11.084;2023-03-14T09:49:12;11.70;90.60
42097;DHT22;27754;45.414;11.084;2023-03-14T09:51:40;11.70;90.80
42097;DHT22;27754;45.414;11.084;2023-03-14T09:54:25;11.70;90.90
42097;DHT22;27754;45.414;11.084;2023-03-14T09:56:54;11.70;90.70
42097;DHT22;27754;45.414;11.084;2023-03-14T09:59:21;11.80;91.00
42097;DHT22;27754;45.414;11.084;2023-03-14T10:01:48;11.80;91.00
42097;DHT22;27754;45.414;11.084;2023-03-14T10:04:18;11.80;90.70
42097;DHT22;27754;45.414;11.084;2023-03-14T10:06:47;11.70;91.00
42097;DHT22;27754;45.414;11.084;2023-03-14T10:09:23;11.80;91.00
42097;DHT22;27754;45.414;11.084;2023-03-14T10:11:57;11.80;91.20
42097;DHT22;27754;45.414;11.084;2023-03-14T10:14:37;11.60;91.00
42097;DHT22;27754;45.414;11.084;2023-03-14T10:17:12;11.60;91.40
42097;DHT22;27754;45.414;11.084;2023-03-14T10:19:56;11.60;91.40
42097;DHT22;27754;45.414;11.084;2023-03-14T10:22:27;11.60;91.70
42097;DHT22;27754;45.414;11.084;2023-03-14T10:25:00;11.50;91.70
42097;DHT22;27754;45.414;11.084;2023-03-14T10:27:32;11.50;92.20
42097;DHT22;27754;45.414;11.084;2023-03-14T10:30:01;11.40;91.90
42097;DHT22;27754;45.414;11.084;2023-03-14T10:32:37;11.50;92.00
42097;DHT22;27754;45.414;11.084;2023-03-14T10:37:57;11.50;92.10
42097;DHT22;27754;45.414;11.084;2023-03-14T10:40:31;11.40;92.20
42097;DHT22;27754;45.414;11.084;2023-03-14T10:43:01;11.40;92.60
42097;DHT22;27754;45.414;11.084;2023-03-14T10:45:43;11.40;92.50
42097;DHT22;27754;45.414;11.084;2023-03-14T10:48:21;11.40;92.60
42097;DHT22;27754;45.414;11.084;2023-03-14T10:56:20;11.40;92.70
42097;DHT22;27754;45.414;11.084;2023-03-14T10:58:49;11.40;93.00
42097;DHT22;27754;45.414;11.084;2023-03-14T11:01:47;11.50;93.10
42097;DHT22;27754;45.414;11.084;2023-03-14T11:04:46;11.50;93.10
42097;DHT22;27754;45.414;11.084;2023-03-14T11:07:39;11.60;93.20
42097;DHT22;27754;45.414;11.084;2023-03-14T11:10:29;11.80;92.90
42097;DHT22;27754;45.414;11.084;2023-03-14T11:16:14;11.80;91.70
42097;DHT22;27754;45.414;11.084;2023-03-14T11:19:01;11.90;91.90
42097;DHT22;27754;45.414;11.084;2023-03-14T11:21:41;11.90;91.70
42097;DHT22;27754;45.414;11.084;2023-03-14T11:32:14;11.90;91.40
42097;DHT22;27754;45.414;11.084;2023-03-14T11:34:53;11.90;91.30
42097;DHT22;27754;45.414;11.084;2023-03-14T11:37:34;12.00;91.50
42097;DHT22;27754;45.414;11.084;2023-03-14T11:40:08;11.90;91.20
42097;DHT22;27754;45.414;11.084;2023-03-14T11:42:41;12.00;91.60
42097;DHT22;27754;45.414;11.084;2023-03-14T11:45:23;12.10;91.70
42097;DHT22;27754;45.414;11.084;2023-03-14T11:48:15;12.20;91.80
42097;DHT22;27754;45.414;11.084;2023-03-14T11:50:44;12.20;91.50
42097;DHT22;27754;45.414;11.084;2023-03-14T11:55:47;12.10;92.10
42097;DHT22;27754;45.414;11.084;2023-03-14T11:58:25;12.10;92.40
42097;DHT22;27754;45.414;11.084;2023-03-14T12:00:55;12.00;92.40
42097;DHT22;27754;45.414;11.084;2023-03-14T12:03:55;12.00;92.00
42097;DHT22;27754;45.414;11.084;2023-03-14T12:09:12;12.10;92.10
42097;DHT22;27754;45.414;11.084;2023-03-14T12:11:47;12.00;92.20
42097;DHT22;27754;45.414;11.084;2023-03-14T12:14:34;12.10;92.30
42097;DHT22;27754;45.414;11.084;2023-03-14T12:19:45;12.00;92.30
42097;DHT22;27754;45.414;11.084;2023-03-14T12:22:33;12.00;92.40
42097;DHT22;27754;45.414;11.084;2023-03-14T12:25:23;12.10;92.80
42097;DHT22;27754;45.414;11.084;2023-03-14T12:30:39;12.10;92.40
42097;DHT22;27754;45.414;11.084;2023-03-14T12:35:41;12.30;92.10
42097;DHT22;27754;45.414;11.084;2023-03-14T12:43:35;12.20;91.00
42097;DHT22;27754;45.414;11.084;2023-03-14T12:46:20;12.20;91.20
42097;DHT22;27754;45.414;11.084;2023-03-14T12:51:34;12.10;91.40
42097;DHT22;27754;45.414;11.084;2023-03-14T13:00:20;12.30;91.90
42097;DHT22;27754;45.414;11.084;2023-03-14T13:02:48;12.40;91.60
42097;DHT22;27754;45.414;11.084;2023-03-14T13:05:23;12.40;90.50
42097;DHT22;27754;45.414;11.084;2023-03-14T13:10:30;12.50;91.20
42097;DHT22;27754;45.414;11.084;2023-03-14T13:13:19;12.50;90.10
42097;DHT22;27754;45.414;11.084;2023-03-14T13:15:48;12.50;89.50
42097;DHT22;27754;45.414;11.084;2023-03-14T13:18:26;12.70;89.20
42097;DHT22;27754;45.414;11.084;2023-03-14T13:20:58;12.80;89.20
42097;DHT22;27754;45.414;11.084;2023-03-14T13:23:28;12.80;89.40
42097;DHT22;27754;45.414;11.084;2023-03-14T13:25:56;12.90;88.80
42097;DHT22;27754;45.414;11.084;2023-03-14T13:28:24;12.90;88.60
42097;DHT22;27754;45.414;11.084;2023-03-14T13:30:59;13.20;88.20
42097;DHT22;27754;45.414;11.084;2023-03-14T13:33:27;13.30;87.90
42097;DHT22;27754;45.414;11.084;2023-03-14T13:36:02;13.30;88.10
42097;DHT22;27754;45.414;11.084;2023-03-14T13:38:35;13.40;88.00
42097;DHT22;27754;45.414;11.084;2023-03-14T13:41:07;13.40;87.20
42097;DHT22;27754;45.414;11.084;2023-03-14T13:43:42;13.50;87.60
42097;DHT22;27754;45.414;11.084;2023-03-14T13:46:22;13.50;87.10
42097;DHT22;27754;45.414;11.084;2023-03-14T13:49:04;13.50;87.20
42097;DHT22;27754;45.414;11.084;2023-03-14T13:51:32;13.60;87.70
42097;DHT22;27754;45.414;11.084;2023-03-14T13:54:02;13.70;87.80
42097;DHT22;27754;45.414;11.084;2023-03-14T13:56:33;13.90;88.30
42097;DHT22;27754;45.414;11.084;2023-03-14T13:59:00;14.00;88.00
42097;DHT22;27754;45.414;11.084;2023-03-14T14:01:32;14.10;87.30
42097;DHT22;27754;45.414;11.084;2023-03-14T14:04:09;14.20;87.00
42097;DHT22;27754;45.414;11.084;2023-03-14T14:06:49;14.20;86.10
42097;DHT22;27754;45.414;11.084;2023-03-14T14:09:23;14.10;86.40
42097;DHT22;27754;45.414;11.084;2023-03-14T14:11:53;14.00;86.30
42097;DHT22;27754;45.414;11.084;2023-03-14T14:14:51;14.10;87.00
42097;DHT22;27754;45.414;11.084;2023-03-14T14:17:31;14.20;87.00
42097;DHT22;27754;45.414;11.084;2023-03-14T14:20:00;14.10;86.70
42097;DHT22;27754;45.414;11.084;2023-03-14T14:22:30;14.20;87.10
42097;DHT22;27754;45.414;11.084;2023-03-14T14:24:57;14.40;86.10
42097;DHT22;27754;45.414;11.084;2023-03-14T14:27:32;14.50;86.10
42097;DHT22;27754;45.414;11.084;2023-03-14T14:30:05;14.50;85.20
42097;DHT22;27754;45.414;11.084;2023-03-14T14:32:37;14.50;85.20
42097;DHT22;27754;45.414;11.084;2023-03-14T14:35:06;14.80;84.80
42097;DHT22;27754;45.414;11.084;2023-03-14T14:37:44;14.80;83.60
42097;DHT22;27754;45.414;11.084;2023-03-14T14:40:21;14.90;83.10
42097;DHT22;27754;45.414;11.084;2023-03-14T14:42:49;15.00;82.80
42097;DHT22;27754;45.414;11.084;2023-03-14T14:47:58;15.10;83.20
42097;DHT22;27754;45.414;11.084;2023-03-14T14:50:34;15.10;82.90
42097;DHT22;27754;45.414;11.084;2023-03-14T14:53:18;15.10;82.30
42097;DHT22;27754;45.414;11.084;2023-03-14T14:55:50;15.20;82.10
42097;DHT22;27754;45.414;11.084;2023-03-14T14:58:27;15.10;81.70
42097;DHT22;27754;45.414;11.084;2023-03-14T15:01:19;15.00;80.90
42097;DHT22;27754;45.414;11.084;2023-03-14T15:03:51;15.00;81.10
42097;DHT22;27754;45.414;11.084;2023-03-14T15:06:20;14.90;81.40
42097;DHT22;27754;45.414;11.084;2023-03-14T15:08:48;14.80;81.60
42097;DHT22;27754;45.414;11.084;2023-03-14T15:11:17;14.70;81.50
42097;DHT22;27754;45.414;11.084;2023-03-14T15:13:45;14.70;82.30
42097;DHT22;27754;45.414;11.084;2023-03-14T15:16:15;14.80;82.70
42097;DHT22;27754;45.414;11.084;2023-03-14T15:18:42;14.80;82.50
42097;DHT22;27754;45.414;11.084;2023-03-14T15:21:10;14.90;81.80
42097;DHT22;27754;45.414;11.084;2023-03-14T15:23:37;14.90;81.20
42097;DHT22;27754;45.414;11.084;2023-03-14T15:26:11;14.90;81.10
42097;DHT22;27754;45.414;11.084;2023-03-14T15:28:40;14.80;80.40
42097;DHT22;27754;45.414;11.084;2023-03-14T15:31:11;14.70;80.50
42097;DHT22;27754;45.414;11.084;2023-03-14T15:33:38;14.70;80.60
42097;DHT22;27754;45.414;11.084;2023-03-14T15:36:26;14.70;80.70
42097;DHT22;27754;45.414;11.084;2023-03-14T15:38:54;14.70;80.80
42097;DHT22;27754;45.414;11.084;2023-03-14T15:41:23;14.60;81.10
42097;DHT22;27754;45.414;11.084;2023-03-14T15:43:50;14.50;82.00
42097;DHT22;27754;45.414;11.084;2023-03-14T15:46:17;14.50;81.70
42097;DHT22;27754;45.414;11.084;2023-03-14T15:48:45;14.40;81.90
42097;DHT22;27754;45.414;11.084;2023-03-14T15:51:12;14.50;81.80
42097;DHT22;27754;45.414;11.084;2023-03-14T15:53:40;14.50;81.50
42097;DHT22;27754;45.414;11.084;2023-03-14T15:56:14;14.40;81.20
42097;DHT22;27754;45.414;11.084;2023-03-14T15:58:41;14.40;81.40
42097;DHT22;27754;45.414;11.084;2023-03-14T16:01:14;14.40;80.60
42097;DHT22;27754;45.414;11.084;2023-03-14T16:03:45;14.40;80.80
42097;DHT22;27754;45.414;11.084;2023-03-14T16:06:13;14.40;81.20
42097;DHT22;27754;45.414;11.084;2023-03-14T16:08:41;14.40;81.60
42097;DHT22;27754;45.414;11.084;2023-03-14T16:11:10;14.40;81.30
42097;DHT22;27754;45.414;11.084;2023-03-14T16:13:37;14.40;82.10
42097;DHT22;27754;45.414;11.084;2023-03-14T16:16:05;14.40;82.40
42097;DHT22;27754;45.414;11.084;2023-03-14T16:18:34;14.40;82.90
42097;DHT22;27754;45.414;11.084;2023-03-14T16:21:05;14.20;83.50
42097;DHT22;27754;45.414;11.084;2023-03-14T16:23:33;14.20;83.20
42097;DHT22;27754;45.414;11.084;2023-03-14T16:26:03;14.00;83.60
42097;DHT22;27754;45.414;11.084;2023-03-14T16:28:31;14.00;83.60
42097;DHT22;27754;45.414;11.084;2023-03-14T16:31:06;14.00;83.70
42097;DHT22;27754;45.414;11.084;2023-03-14T16:33:35;13.90;83.90
42097;DHT22;27754;45.414;11.084;2023-03-14T16:36:07;13.90;84.40
42097;DHT22;27754;45.414;11.084;2023-03-14T16:38:35;13.90;84.80
42097;DHT22;27754;45.414;11.084;2023-03-14T16:41:06;13.80;85.00
42097;DHT22;27754;45.414;11.084;2023-03-14T16:43:35;13.70;85.30
42097;DHT22;27754;45.414;11.084;2023-03-14T16:46:07;13.60;85.60
42097;DHT22;27754;45.414;11.084;2023-03-14T16:48:34;13.50;85.60
42097;DHT22;27754;45.414;11.084;2023-03-14T16:51:02;13.40;85.70
42097;DHT22;27754;45.414;11.084;2023-03-14T16:53:29;13.40;85.70